sensor_id;sensor_type;location;lat;lon;timestamp;P1;durP1;ratioP1;P2;durP2;ratioP2
76801;SDS011;66403;50.832;10.950;2023-04-08T00:04:36;11.27;;;6.22;;
76801;SDS011;66403;50.832;10.950;2023-04-08T00:09:36;9.63;;;4.93;;
76801;SDS011;66403;50.832;10.950;2023-04-08T00:14:37;12.50;;;6.43;;
76801;SDS011;66403;50.832;10.950;2023-04-08T00:19:39;11.32;;;6.10;;
76801;SDS011;66403;50.832;10.950;2023-04-08T00:24:40;10.00;;;5.63;;
76801;SDS011;66403;50.832;10.950;2023-04-08T00:29:40;12.38;;;6.50;;
76801;SDS011;66403;50.832;10.950;2023-04-08T00:34:41;8.65;;;6.13;;
76801;SDS011;66403;50.832;10.950;2023-04-08T00:39:42;6.93;;;5.20;;
76801;SDS011;66403;50.832;10.950;2023-04-08T00:44:43;10.07;;;5.93;;
76801;SDS011;66403;50.832;10.950;2023-04-08T00:49:43;9.27;;;5.97;;
76801;SDS011;66403;50.832;10.950;2023-04-08T00:54:44;8.25;;;5.47;;
76801;SDS011;66403;50.832;10.950;2023-04-08T00:59:44;7.20;;;5.28;;
76801;SDS011;66403;50.832;10.950;2023-04-08T01:10:21;10.98;;;6.05;;
76801;SDS011;66403;50.832;10.950;2023-04-08T01:15:23;11.77;;;6.45;;
76801;SDS011;66403;50.832;10.950;2023-04-08T01:20:25;11.27;;;6.32;;
76801;SDS011;66403;50.832;10.950;2023-04-08T01:25:29;9.63;;;5.88;;
76801;SDS011;66403;50.832;10.950;2023-04-08T01:30:31;9.73;;;5.18;;
76801;SDS011;66403;50.832;10.950;2023-04-08T01:35:32;7.60;;;5.20;;
76801;SDS011;66403;50.832;10.950;2023-04-08T01:40:36;10.88;;;5.95;;
76801;SDS011;66403;50.832;10.950;2023-04-08T01:45:38;9.35;;;5.05;;
76801;SDS011;66403;50.832;10.950;2023-04-08T01:50:39;11.05;;;5.75;;
76801;SDS011;66403;50.832;10.950;2023-04-08T01:55:41;8.10;;;5.32;;
76801;SDS011;66403;50.832;10.950;2023-04-08T02:00:42;6.38;;;4.57;;
76801;SDS011;66403;50.832;10.950;2023-04-08T02:05:43;10.65;;;5.72;;
76801;SDS011;66403;50.832;10.950;2023-04-08T02:10:44;6.88;;;5.07;;
76801;SDS011;66403;50.832;10.950;2023-04-08T02:15:46;8.55;;;5.70;;
76801;SDS011;66403;50.832;10.950;2023-04-08T02:20:56;9.88;;;5.60;;
76801;SDS011;66403;50.832;10.950;2023-04-08T02:26:00;8.20;;;6.00;;
76801;SDS011;66403;50.832;10.950;2023-04-08T02:31:01;11.63;;;5.82;;
76801;SDS011;66403;50.832;10.950;2023-04-08T02:36:02;11.93;;;5.32;;
76801;SDS011;66403;50.832;10.950;2023-04-08T02:41:04;9.13;;;5.43;;
76801;SDS011;66403;50.832;10.950;2023-04-08T02:46:05;8.02;;;5.45;;
76801;SDS011;66403;50.832;10.950;2023-04-08T02:51:06;7.25;;;4.60;;
76801;SDS011;66403;50.832;10.950;2023-04-08T02:56:10;7.18;;;5.40;;
76801;SDS011;66403;50.832;10.950;2023-04-08T03:01:10;7.13;;;5.45;;
76801;SDS011;66403;50.832;10.950;2023-04-08T03:06:11;8.18;;;5.13;;
76801;SDS011;66403;50.832;10.950;2023-04-08T03:11:11;8.85;;;5.53;;
76801;SDS011;66403;50.832;10.950;2023-04-08T03:16:12;7.50;;;5.20;;
76801;SDS011;66403;50.832;10.950;2023-04-08T03:21:12;6.93;;;4.45;;
76801;SDS011;66403;50.832;10.950;2023-04-08T03:26:13;8.95;;;4.90;;
76801;SDS011;66403;50.832;10.950;2023-04-08T03:31:13;6.50;;;3.75;;
76801;SDS011;66403;50.832;10.950;2023-04-08T03:36:13;6.13;;;3.95;;
76801;SDS011;66403;50.832;10.950;2023-04-08T03:41:14;6.47;;;4.45;;
76801;SDS011;66403;50.832;10.950;2023-04-08T03:46:15;6.28;;;4.15;;
76801;SDS011;66403;50.832;10.950;2023-04-08T03:51:15;6.78;;;4.22;;
76801;SDS011;66403;50.832;10.950;2023-04-08T03:56:16;8.50;;;4.60;;
76801;SDS011;66403;50.832;10.950;2023-04-08T04:01:16;8.35;;;4.35;;
76801;SDS011;66403;50.832;10.950;2023-04-08T04:06:16;5.50;;;3.33;;
76801;SDS011;66403;50.832;10.950;2023-04-08T04:11:17;6.82;;;4.10;;
76801;SDS011;66403;50.832;10.950;2023-04-08T04:16:17;7.82;;;4.53;;
76801;SDS011;66403;50.832;10.950;2023-04-08T04:21:18;6.20;;;3.97;;
76801;SDS011;66403;50.832;10.950;2023-04-08T04:26:18;5.05;;;3.42;;
76801;SDS011;66403;50.832;10.950;2023-04-08T04:31:20;5.80;;;4.53;;
76801;SDS011;66403;50.832;10.950;2023-04-08T04:36:21;7.43;;;3.85;;
76801;SDS011;66403;50.832;10.950;2023-04-08T04:41:22;7.07;;;4.32;;
76801;SDS011;66403;50.832;10.950;2023-04-08T04:46:22;9.73;;;4.53;;
76801;SDS011;66403;50.832;10.950;2023-04-08T04:51:23;8.48;;;4.32;;
76801;SDS011;66403;50.832;10.950;2023-04-08T04:56:23;5.90;;;3.88;;
76801;SDS011;66403;50.832;10.950;2023-04-08T05:01:25;9.48;;;4.38;;
76801;SDS011;66403;50.832;10.950;2023-04-08T05:06:25;7.38;;;4.55;;
76801;SDS011;66403;50.832;10.950;2023-04-08T05:11:26;9.85;;;4.57;;
76801;SDS011;66403;50.832;10.950;2023-04-08T05:16:27;7.38;;;4.00;;
76801;SDS011;66403;50.832;10.950;2023-04-08T05:21:27;9.77;;;4.38;;
76801;SDS011;66403;50.832;10.950;2023-04-08T05:26:27;6.93;;;4.28;;
76801;SDS011;66403;50.832;10.950;2023-04-08T05:31:28;10.00;;;6.30;;
76801;SDS011;66403;50.832;10.950;2023-04-08T05:36:28;7.53;;;5.03;;
76801;SDS011;66403;50.832;10.950;2023-04-08T05:41:29;9.32;;;5.28;;
76801;SDS011;66403;50.832;10.950;2023-04-08T05:46:29;8.32;;;4.68;;
76801;SDS011;66403;50.832;10.950;2023-04-08T05:51:32;6.82;;;4.00;;
76801;SDS011;66403;50.832;10.950;2023-04-08T05:56:33;9.10;;;4.38;;
76801;SDS011;66403;50.832;10.950;2023-04-08T06:01:34;10.23;;;4.35;;
76801;SDS011;66403;50.832;10.950;2023-04-08T06:06:36;10.63;;;5.00;;
76801;SDS011;66403;50.832;10.950;2023-04-08T06:11:38;25.90;;;11.27;;
76801;SDS011;66403;50.832;10.950;2023-04-08T06:16:39;8.23;;;4.75;;
76801;SDS011;66403;50.832;10.950;2023-04-08T06:21:46;8.50;;;4.60;;
76801;SDS011;66403;50.832;10.950;2023-04-08T06:26:47;9.73;;;4.68;;
76801;SDS011;66403;50.832;10.950;2023-04-08T06:31:56;7.82;;;3.70;;
76801;SDS011;66403;50.832;10.950;2023-04-08T06:36:57;9.10;;;4.40;;
76801;SDS011;66403;50.832;10.950;2023-04-08T06:42:01;9.82;;;5.60;;
76801;SDS011;66403;50.832;10.950;2023-04-08T06:47:20;8.18;;;4.07;;
76801;SDS011;66403;50.832;10.950;2023-04-08T06:52:21;6.88;;;5.00;;
76801;SDS011;66403;50.832;10.950;2023-04-08T06:57:40;8.45;;;3.88;;
76801;SDS011;66403;50.832;10.950;2023-04-08T07:03:15;4.95;;;3.00;;
76801;SDS011;66403;50.832;10.950;2023-04-08T07:08:15;5.85;;;3.40;;
76801;SDS011;66403;50.832;10.950;2023-04-08T07:13:16;6.45;;;2.83;;
76801;SDS011;66403;50.832;10.950;2023-04-08T07:18:16;5.78;;;3.25;;
76801;SDS011;66403;50.832;10.950;2023-04-08T07:23:17;4.78;;;2.90;;
76801;SDS011;66403;50.832;10.950;2023-04-08T07:28:17;3.97;;;2.65;;
76801;SDS011;66403;50.832;10.950;2023-04-08T07:33:17;5.55;;;2.60;;
76801;SDS011;66403;50.832;10.950;2023-04-08T07:38:18;6.22;;;3.40;;
76801;SDS011;66403;50.832;10.950;2023-04-08T07:43:19;6.15;;;4.38;;
76801;SDS011;66403;50.832;10.950;2023-04-08T07:48:19;3.47;;;2.30;;
76801;SDS011;66403;50.832;10.950;2023-04-08T07:53:20;5.05;;;2.25;;
76801;SDS011;66403;50.832;10.950;2023-04-08T07:58:21;4.85;;;2.38;;
76801;SDS011;66403;50.832;10.950;2023-04-08T08:03:22;3.88;;;2.38;;
76801;SDS011;66403;50.832;10.950;2023-04-08T08:08:23;6.35;;;3.15;;
76801;SDS011;66403;50.832;10.950;2023-04-08T08:13:23;4.00;;;1.83;;
76801;SDS011;66403;50.832;10.950;2023-04-08T08:18:24;3.08;;;1.40;;
76801;SDS011;66403;50.832;10.950;2023-04-08T08:23:24;3.05;;;2.00;;
76801;SDS011;66403;50.832;10.950;2023-04-08T08:28:26;3.75;;;2.35;;
76801;SDS011;66403;50.832;10.950;2023-04-08T08:33:26;5.00;;;2.50;;
76801;SDS011;66403;50.832;10.950;2023-04-08T08:38:27;4.95;;;2.55;;
76801;SDS011;66403;50.832;10.950;2023-04-08T08:43:28;7.35;;;3.97;;
76801;SDS011;66403;50.832;10.950;2023-04-08T08:48:28;5.47;;;2.47;;
76801;SDS011;66403;50.832;10.950;2023-04-08T08:53:30;3.30;;;1.60;;
76801;SDS011;66403;50.832;10.950;2023-04-08T08:58:31;9.48;;;4.13;;
76801;SDS011;66403;50.832;10.950;2023-04-08T09:03:32;9.20;;;3.53;;
76801;SDS011;66403;50.832;10.950;2023-04-08T09:08:41;6.65;;;3.30;;
76801;SDS011;66403;50.832;10.950;2023-04-08T09:13:45;4.95;;;2.53;;
76801;SDS011;66403;50.832;10.950;2023-04-08T09:18:46;4.15;;;2.00;;
76801;SDS011;66403;50.832;10.950;2023-04-08T09:23:50;4.28;;;2.20;;
76801;SDS011;66403;50.832;10.950;2023-04-08T09:29:05;5.55;;;3.15;;
76801;SDS011;66403;50.832;10.950;2023-04-08T09:34:11;4.70;;;2.60;;
76801;SDS011;66403;50.832;10.950;2023-04-08T09:39:12;4.45;;;2.25;;
76801;SDS011;66403;50.832;10.950;2023-04-08T09:44:19;4.80;;;2.95;;
76801;SDS011;66403;50.832;10.950;2023-04-08T09:59:37;9.07;;;4.47;;
76801;SDS011;66403;50.832;10.950;2023-04-08T10:04:48;3.78;;;2.45;;
76801;SDS011;66403;50.832;10.950;2023-04-08T10:09:51;5.57;;;3.33;;
76801;SDS011;66403;50.832;10.950;2023-04-08T10:35:41;4.47;;;3.40;;
76801;SDS011;66403;50.832;10.950;2023-04-08T10:40:42;6.13;;;3.25;;
76801;SDS011;66403;50.832;10.950;2023-04-08T10:45:43;4.75;;;3.25;;
76801;SDS011;66403;50.832;10.950;2023-04-08T10:50:54;6.65;;;3.78;;
76801;SDS011;66403;50.832;10.950;2023-04-08T10:56:02;4.90;;;2.75;;
76801;SDS011;66403;50.832;10.950;2023-04-08T11:01:21;5.20;;;2.80;;
76801;SDS011;66403;50.832;10.950;2023-04-08T11:06:21;5.25;;;3.33;;
76801;SDS011;66403;50.832;10.950;2023-04-08T11:11:23;6.20;;;3.28;;
76801;SDS011;66403;50.832;10.950;2023-04-08T11:16:28;7.60;;;4.50;;
76801;SDS011;66403;50.832;10.950;2023-04-08T11:21:29;7.85;;;3.30;;
76801;SDS011;66403;50.832;10.950;2023-04-08T11:26:30;9.43;;;4.15;;
76801;SDS011;66403;50.832;10.950;2023-04-08T11:31:31;6.95;;;3.95;;
76801;SDS011;66403;50.832;10.950;2023-04-08T11:36:32;5.22;;;3.15;;
76801;SDS011;66403;50.832;10.950;2023-04-08T11:41:38;5.55;;;3.95;;
76801;SDS011;66403;50.832;10.950;2023-04-08T11:46:39;5.80;;;3.60;;
76801;SDS011;66403;50.832;10.950;2023-04-08T11:52:14;6.07;;;3.30;;
76801;SDS011;66403;50.832;10.950;2023-04-08T11:57:08;5.78;;;3.55;;
76801;SDS011;66403;50.832;10.950;2023-04-08T12:02:12;8.73;;;4.10;;
76801;SDS011;66403;50.832;10.950;2023-04-08T12:07:12;6.55;;;3.78;;
76801;SDS011;66403;50.832;10.950;2023-04-08T12:12:13;8.60;;;4.32;;
76801;SDS011;66403;50.832;10.950;2023-04-08T12:17:13;7.78;;;4.68;;
76801;SDS011;66403;50.832;10.950;2023-04-08T12:22:14;11.20;;;5.10;;
76801;SDS011;66403;50.832;10.950;2023-04-08T12:27:15;12.05;;;7.10;;
76801;SDS011;66403;50.832;10.950;2023-04-08T12:32:15;13.88;;;7.00;;
76801;SDS011;66403;50.832;10.950;2023-04-08T12:37:16;13.43;;;7.35;;
76801;SDS011;66403;50.832;10.950;2023-04-08T12:42:16;12.90;;;7.00;;
76801;SDS011;66403;50.832;10.950;2023-04-08T12:47:17;14.88;;;6.82;;
76801;SDS011;66403;50.832;10.950;2023-04-08T12:52:18;14.63;;;6.93;;
76801;SDS011;66403;50.832;10.950;2023-04-08T12:57:18;11.57;;;6.53;;
76801;SDS011;66403;50.832;10.950;2023-04-08T13:02:19;12.45;;;6.35;;
76801;SDS011;66403;50.832;10.950;2023-04-08T13:07:19;13.50;;;7.65;;
76801;SDS011;66403;50.832;10.950;2023-04-08T13:12:20;13.60;;;7.60;;
76801;SDS011;66403;50.832;10.950;2023-04-08T13:17:20;18.33;;;9.20;;
76801;SDS011;66403;50.832;10.950;2023-04-08T13:22:21;11.40;;;6.40;;
76801;SDS011;66403;50.832;10.950;2023-04-08T13:27:21;8.75;;;4.82;;
76801;SDS011;66403;50.832;10.950;2023-04-08T13:32:21;8.60;;;5.10;;
76801;SDS011;66403;50.832;10.950;2023-04-08T13:37:22;8.50;;;5.45;;
76801;SDS011;66403;50.832;10.950;2023-04-08T13:42:22;9.18;;;5.20;;
76801;SDS011;66403;50.832;10.950;2023-04-08T13:47:23;11.45;;;6.32;;
76801;SDS011;66403;50.832;10.950;2023-04-08T13:52:24;11.90;;;6.20;;
76801;SDS011;66403;50.832;10.950;2023-04-08T13:57:24;12.30;;;6.35;;
76801;SDS011;66403;50.832;10.950;2023-04-08T14:02:25;11.70;;;7.05;;
76801;SDS011;66403;50.832;10.950;2023-04-08T14:07:25;10.55;;;6.35;;
76801;SDS011;66403;50.832;10.950;2023-04-08T14:12:26;14.60;;;7.93;;
76801;SDS011;66403;50.832;10.950;2023-04-08T14:17:26;14.43;;;6.95;;
76801;SDS011;66403;50.832;10.950;2023-04-08T14:22:26;10.98;;;6.00;;
76801;SDS011;66403;50.832;10.950;2023-04-08T14:27:27;12.10;;;6.95;;
76801;SDS011;66403;50.832;10.950;2023-04-08T14:32:28;14.75;;;7.18;;
76801;SDS011;66403;50.832;10.950;2023-04-08T14:37:28;16.00;;;7.43;;
76801;SDS011;66403;50.832;10.950;2023-04-08T14:42:30;16.02;;;9.18;;
76801;SDS011;66403;50.832;10.950;2023-04-08T14:47:30;16.40;;;9.00;;
76801;SDS011;66403;50.832;10.950;2023-04-08T14:52:31;16.55;;;9.25;;
76801;SDS011;66403;50.832;10.950;2023-04-08T14:57:31;15.18;;;8.38;;
76801;SDS011;66403;50.832;10.950;2023-04-08T15:02:32;18.15;;;8.50;;
76801;SDS011;66403;50.832;10.950;2023-04-08T15:07:32;14.85;;;7.22;;
76801;SDS011;66403;50.832;10.950;2023-04-08T15:12:32;13.80;;;7.60;;
76801;SDS011;66403;50.832;10.950;2023-04-08T15:17:33;15.43;;;9.35;;
76801;SDS011;66403;50.832;10.950;2023-04-08T15:22:33;13.57;;;7.60;;
76801;SDS011;66403;50.832;10.950;2023-04-08T15:27:34;18.52;;;8.55;;
76801;SDS011;66403;50.832;10.950;2023-04-08T15:32:35;17.23;;;8.98;;
76801;SDS011;66403;50.832;10.950;2023-04-08T15:37:36;15.55;;;8.07;;
76801;SDS011;66403;50.832;10.950;2023-04-08T15:42:36;20.38;;;8.77;;
76801;SDS011;66403;50.832;10.950;2023-04-08T15:47:37;17.13;;;8.75;;
76801;SDS011;66403;50.832;10.950;2023-04-08T15:52:37;19.83;;;9.48;;
76801;SDS011;66403;50.832;10.950;2023-04-08T15:57:38;14.50;;;8.07;;
76801;SDS011;66403;50.832;10.950;2023-04-08T16:02:38;16.85;;;9.00;;
76801;SDS011;66403;50.832;10.950;2023-04-08T16:07:39;15.93;;;8.20;;
76801;SDS011;66403;50.832;10.950;2023-04-08T16:12:41;22.30;;;10.77;;
76801;SDS011;66403;50.832;10.950;2023-04-08T16:17:41;17.15;;;9.75;;
76801;SDS011;66403;50.832;10.950;2023-04-08T16:22:41;22.38;;;12.70;;
76801;SDS011;66403;50.832;10.950;2023-04-08T16:27:42;20.83;;;10.52;;
76801;SDS011;66403;50.832;10.950;2023-04-08T16:32:42;17.95;;;9.57;;
76801;SDS011;66403;50.832;10.950;2023-04-08T16:37:43;20.58;;;10.18;;
76801;SDS011;66403;50.832;10.950;2023-04-08T16:42:43;16.58;;;9.50;;
76801;SDS011;66403;50.832;10.950;2023-04-08T16:47:44;21.25;;;9.70;;
76801;SDS011;66403;50.832;10.950;2023-04-08T16:52:44;17.10;;;9.27;;
76801;SDS011;66403;50.832;10.950;2023-04-08T16:57:48;23.48;;;10.27;;
76801;SDS011;66403;50.832;10.950;2023-04-08T17:02:49;19.63;;;10.32;;
76801;SDS011;66403;50.832;10.950;2023-04-08T17:07:49;25.13;;;12.25;;
76801;SDS011;66403;50.832;10.950;2023-04-08T17:12:50;20.30;;;11.23;;
76801;SDS011;66403;50.832;10.950;2023-04-08T17:17:51;22.67;;;12.05;;
76801;SDS011;66403;50.832;10.950;2023-04-08T17:22:51;19.60;;;9.55;;
76801;SDS011;66403;50.832;10.950;2023-04-08T17:27:51;20.00;;;10.85;;
76801;SDS011;66403;50.832;10.950;2023-04-08T17:32:52;18.85;;;10.98;;
76801;SDS011;66403;50.832;10.950;2023-04-08T17:37:52;19.77;;;10.43;;
76801;SDS011;66403;50.832;10.950;2023-04-08T17:42:53;19.77;;;9.43;;
76801;SDS011;66403;50.832;10.950;2023-04-08T17:47:53;15.30;;;9.02;;
76801;SDS011;66403;50.832;10.950;2023-04-08T17:52:55;16.58;;;10.13;;
76801;SDS011;66403;50.832;10.950;2023-04-08T17:57:55;19.05;;;11.02;;
76801;SDS011;66403;50.832;10.950;2023-04-08T18:02:56;22.27;;;10.68;;
76801;SDS011;66403;50.832;10.950;2023-04-08T18:07:56;20.70;;;10.43;;
76801;SDS011;66403;50.832;10.950;2023-04-08T18:12:57;20.95;;;10.20;;
76801;SDS011;66403;50.832;10.950;2023-04-08T18:17:57;19.20;;;10.27;;
76801;SDS011;66403;50.832;10.950;2023-04-08T18:22:58;16.42;;;9.07;;
76801;SDS011;66403;50.832;10.950;2023-04-08T18:28:02;17.85;;;10.15;;
76801;SDS011;66403;50.832;10.950;2023-04-08T18:33:03;18.80;;;10.38;;
76801;SDS011;66403;50.832;10.950;2023-04-08T18:38:03;18.50;;;10.23;;
76801;SDS011;66403;50.832;10.950;2023-04-08T18:43:04;19.08;;;9.05;;
76801;SDS011;66403;50.832;10.950;2023-04-08T18:48:05;19.55;;;10.35;;
76801;SDS011;66403;50.832;10.950;2023-04-08T18:53:07;20.33;;;9.23;;
76801;SDS011;66403;50.832;10.950;2023-04-08T18:58:07;22.73;;;10.65;;
76801;SDS011;66403;50.832;10.950;2023-04-08T19:03:08;20.33;;;10.10;;
76801;SDS011;66403;50.832;10.950;2023-04-08T19:08:09;19.60;;;10.00;;
76801;SDS011;66403;50.832;10.950;2023-04-08T19:13:09;19.17;;;10.05;;
76801;SDS011;66403;50.832;10.950;2023-04-08T19:18:10;23.90;;;12.07;;
76801;SDS011;66403;50.832;10.950;2023-04-08T19:23:11;20.17;;;9.55;;
76801;SDS011;66403;50.832;10.950;2023-04-08T19:28:12;18.42;;;9.95;;
76801;SDS011;66403;50.832;10.950;2023-04-08T19:33:13;21.02;;;10.88;;
76801;SDS011;66403;50.832;10.950;2023-04-08T19:38:14;23.63;;;12.07;;
76801;SDS011;66403;50.832;10.950;2023-04-08T19:43:15;23.92;;;12.00;;
76801;SDS011;66403;50.832;10.950;2023-04-08T19:48:16;17.38;;;9.55;;
76801;SDS011;66403;50.832;10.950;2023-04-08T19:53:16;20.83;;;10.80;;
76801;SDS011;66403;50.832;10.950;2023-04-08T19:58:17;18.63;;;9.23;;
76801;SDS011;66403;50.832;10.950;2023-04-08T20:03:18;23.83;;;10.77;;
76801;SDS011;66403;50.832;10.950;2023-04-08T20:08:18;25.23;;;10.90;;
76801;SDS011;66403;50.832;10.950;2023-04-08T20:13:19;18.75;;;10.88;;
76801;SDS011;66403;50.832;10.950;2023-04-08T20:18:20;18.83;;;10.57;;
76801;SDS011;66403;50.832;10.950;2023-04-08T20:23:23;25.30;;;10.63;;
76801;SDS011;66403;50.832;10.950;2023-04-08T20:28:23;21.92;;;11.88;;
76801;SDS011;66403;50.832;10.950;2023-04-08T20:33:24;25.27;;;12.50;;
76801;SDS011;66403;50.832;10.950;2023-04-08T20:38:26;25.92;;;12.07;;
76801;SDS011;66403;50.832;10.950;2023-04-08T20:43:27;28.20;;;13.15;;
76801;SDS011;66403;50.832;10.950;2023-04-08T20:48:27;22.83;;;11.82;;
76801;SDS011;66403;50.832;10.950;2023-04-08T20:53:28;21.05;;;10.55;;
76801;SDS011;66403;50.832;10.950;2023-04-08T20:58:29;22.52;;;11.15;;
76801;SDS011;66403;50.832;10.950;2023-04-08T21:03:29;22.25;;;9.63;;
76801;SDS011;66403;50.832;10.950;2023-04-08T21:08:30;27.42;;;14.57;;
76801;SDS011;66403;50.832;10.950;2023-04-08T21:13:30;27.27;;;12.45;;
76801;SDS011;66403;50.832;10.950;2023-04-08T21:18:31;23.73;;;11.93;;
76801;SDS011;66403;50.832;10.950;2023-04-08T21:23:31;23.83;;;12.30;;
76801;SDS011;66403;50.832;10.950;2023-04-08T21:28:32;23.23;;;11.48;;
76801;SDS011;66403;50.832;10.950;2023-04-08T21:33:32;28.23;;;13.35;;
76801;SDS011;66403;50.832;10.950;2023-04-08T21:38:33;24.42;;;11.60;;
76801;SDS011;66403;50.832;10.950;2023-04-08T21:43:34;24.52;;;12.82;;
76801;SDS011;66403;50.832;10.950;2023-04-08T21:48:34;24.15;;;12.27;;
76801;SDS011;66403;50.832;10.950;2023-04-08T21:53:35;24.58;;;12.00;;
76801;SDS011;66403;50.832;10.950;2023-04-08T21:58:35;26.05;;;11.82;;
76801;SDS011;66403;50.832;10.950;2023-04-08T22:03:36;23.67;;;13.05;;
76801;SDS011;66403;50.832;10.950;2023-04-08T22:08:36;23.33;;;12.52;;
76801;SDS011;66403;50.832;10.950;2023-04-08T22:13:37;27.00;;;13.70;;
76801;SDS011;66403;50.832;10.950;2023-04-08T22:18:37;23.67;;;12.45;;
76801;SDS011;66403;50.832;10.950;2023-04-08T22:23:38;25.50;;;13.45;;
76801;SDS011;66403;50.832;10.950;2023-04-08T22:28:39;24.55;;;14.27;;
76801;SDS011;66403;50.832;10.950;2023-04-08T22:33:40;27.10;;;13.02;;
76801;SDS011;66403;50.832;10.950;2023-04-08T22:38:40;29.75;;;13.25;;
76801;SDS011;66403;50.832;10.950;2023-04-08T22:43:41;22.40;;;11.10;;
76801;SDS011;66403;50.832;10.950;2023-04-08T22:48:41;24.30;;;13.38;;
76801;SDS011;66403;50.832;10.950;2023-04-08T22:53:42;28.73;;;13.70;;
76801;SDS011;66403;50.832;10.950;2023-04-08T22:58:42;30.13;;;13.95;;
76801;SDS011;66403;50.832;10.950;2023-04-08T23:03:43;29.35;;;13.73;;
76801;SDS011;66403;50.832;10.950;2023-04-08T23:08:43;26.02;;;13.65;;
76801;SDS011;66403;50.832;10.950;2023-04-08T23:13:44;28.30;;;14.32;;
76801;SDS011;66403;50.832;10.950;2023-04-08T23:18:44;23.80;;;13.13;;
76801;SDS011;66403;50.832;10.950;2023-04-08T23:23:45;27.85;;;13.18;;
76801;SDS011;66403;50.832;10.950;2023-04-08T23:28:45;30.35;;;13.23;;
76801;SDS011;66403;50.832;10.950;2023-04-08T23:33:46;26.92;;;13.80;;
76801;SDS011;66403;50.832;10.950;2023-04-08T23:38:46;28.42;;;15.77;;
76801;SDS011;66403;50.832;10.950;2023-04-08T23:43:47;26.10;;;13.77;;
76801;SDS011;66403;50.832;10.950;2023-04-08T23:48:47;31.15;;;15.55;;
76801;SDS011;66403;50.832;10.950;2023-04-08T23:53:48;25.20;;;13.50;;
76801;SDS011;66403;50.832;10.950;2023-04-08T23:58:48;30.10;;;15.25;;
